sensor_id;sensor_type;location;lat;lon;timestamp;temperature;humidity
18998;DHT22;9632;51.018;4.284;2022-07-18T00:02:16;21.00;99.90
18998;DHT22;9632;51.018;4.284;2022-07-18T00:04:43;20.90;99.90
18998;DHT22;9632;51.018;4.284;2022-07-18T00:07:08;20.90;99.90
18998;DHT22;9632;51.018;4.284;2022-07-18T00:09:39;20.90;99.90
18998;DHT22;9632;51.018;4.284;2022-07-18T00:12:06;20.90;99.90
18998;DHT22;9632;51.018;4.284;2022-07-18T00:14:32;20.80;99.90
18998;DHT22;9632;51.018;4.284;2022-07-18T00:16:58;20.80;99.90
18998;DHT22;9632;51.018;4.284;2022-07-18T00:19:24;20.70;99.90
18998;DHT22;9632;51.018;4.284;2022-07-18T00:21:50;20.70;99.90
18998;DHT22;9632;51.018;4.284;2022-07-18T00:24:16;20.70;99.90
18998;DHT22;9632;51.018;4.284;2022-07-18T00:26:42;20.60;99.90
18998;DHT22;9632;51.018;4.284;2022-07-18T00:29:08;20.60;99.90
18998;DHT22;9632;51.018;4.284;2022-07-18T00:31:34;20.60;99.90
18998;DHT22;9632;51.018;4.284;2022-07-18T00:34:00;20.50;99.90
18998;DHT22;9632;51.018;4.284;2022-07-18T00:36:30;20.50;99.90
18998;DHT22;9632;51.018;4.284;2022-07-18T00:38:57;20.40;99.90
18998;DHT22;9632;51.018;4.284;2022-07-18T00:41:23;20.30;99.90
18998;DHT22;9632;51.018;4.284;2022-07-18T00:43:49;20.30;99.90
18998;DHT22;9632;51.018;4.284;2022-07-18T00:46:15;20.30;99.90
18998;DHT22;9632;51.018;4.284;2022-07-18T00:48:42;20.30;99.90
18998;DHT22;9632;51.018;4.284;2022-07-18T00:51:08;20.30;99.90
18998;DHT22;9632;51.018;4.284;2022-07-18T00:53:34;20.20;99.90
18998;DHT22;9632;51.018;4.284;2022-07-18T00:56:02;20.20;99.90
18998;DHT22;9632;51.018;4.284;2022-07-18T00:58:29;20.10;99.90
18998;DHT22;9632;51.018;4.284;2022-07-18T01:00:56;20.10;99.90
18998;DHT22;9632;51.018;4.284;2022-07-18T01:03:40;20.00;99.90
18998;DHT22;9632;51.018;4.284;2022-07-18T01:06:06;20.00;99.90
18998;DHT22;9632;51.018;4.284;2022-07-18T01:08:32;20.00;99.90
18998;DHT22;9632;51.018;4.284;2022-07-18T01:10:58;19.90;99.90
18998;DHT22;9632;51.018;4.284;2022-07-18T01:13:24;19.90;99.90
18998;DHT22;9632;51.018;4.284;2022-07-18T01:15:50;19.90;99.90
18998;DHT22;9632;51.018;4.284;2022-07-18T01:18:15;19.90;99.90
18998;DHT22;9632;51.018;4.284;2022-07-18T01:20:41;19.80;99.90
18998;DHT22;9632;51.018;4.284;2022-07-18T01:23:07;19.80;99.90
18998;DHT22;9632;51.018;4.284;2022-07-18T01:25:32;19.70;99.90
18998;DHT22;9632;51.018;4.284;2022-07-18T01:27:58;19.70;99.90
18998;DHT22;9632;51.018;4.284;2022-07-18T01:30:24;19.70;99.90
18998;DHT22;9632;51.018;4.284;2022-07-18T01:32:58;19.60;99.90
18998;DHT22;9632;51.018;4.284;2022-07-18T01:35:25;19.60;99.90
18998;DHT22;9632;51.018;4.284;2022-07-18T01:37:52;19.60;99.90
18998;DHT22;9632;51.018;4.284;2022-07-18T01:40:18;19.60;99.90
18998;DHT22;9632;51.018;4.284;2022-07-18T01:42:43;19.60;99.90
18998;DHT22;9632;51.018;4.284;2022-07-18T01:45:09;19.50;99.90
18998;DHT22;9632;51.018;4.284;2022-07-18T01:47:35;19.50;99.90
18998;DHT22;9632;51.018;4.284;2022-07-18T01:50:01;19.50;99.90
18998;DHT22;9632;51.018;4.284;2022-07-18T01:52:26;19.50;99.90
18998;DHT22;9632;51.018;4.284;2022-07-18T01:54:52;19.40;99.90
18998;DHT22;9632;51.018;4.284;2022-07-18T01:57:17;19.40;99.90
18998;DHT22;9632;51.018;4.284;2022-07-18T01:59:43;19.40;99.90
18998;DHT22;9632;51.018;4.284;2022-07-18T02:02:09;19.30;99.90
18998;DHT22;9632;51.018;4.284;2022-07-18T02:04:34;19.30;99.90
18998;DHT22;9632;51.018;4.284;2022-07-18T02:07:18;19.20;99.90
18998;DHT22;9632;51.018;4.284;2022-07-18T02:09:44;19.20;99.90
18998;DHT22;9632;51.018;4.284;2022-07-18T02:12:10;19.10;99.90
18998;DHT22;9632;51.018;4.284;2022-07-18T02:14:35;19.10;99.90
18998;DHT22;9632;51.018;4.284;2022-07-18T02:17:01;19.10;99.90
18998;DHT22;9632;51.018;4.284;2022-07-18T02:19:26;19.10;99.90
18998;DHT22;9632;51.018;4.284;2022-07-18T02:21:52;19.00;99.90
18998;DHT22;9632;51.018;4.284;2022-07-18T02:24:18;18.90;99.90
18998;DHT22;9632;51.018;4.284;2022-07-18T02:26:43;18.80;99.90
18998;DHT22;9632;51.018;4.284;2022-07-18T02:29:09;18.80;99.90
18998;DHT22;9632;51.018;4.284;2022-07-18T02:31:34;18.80;99.90
18998;DHT22;9632;51.018;4.284;2022-07-18T02:34:00;18.80;99.90
18998;DHT22;9632;51.018;4.284;2022-07-18T02:36:26;18.80;99.90
18998;DHT22;9632;51.018;4.284;2022-07-18T02:38:52;18.90;99.90
18998;DHT22;9632;51.018;4.284;2022-07-18T02:41:17;18.80;99.90
18998;DHT22;9632;51.018;4.284;2022-07-18T02:43:43;18.80;99.90
18998;DHT22;9632;51.018;4.284;2022-07-18T02:46:08;18.80;99.90
18998;DHT22;9632;51.018;4.284;2022-07-18T02:48:34;18.70;99.90
18998;DHT22;9632;51.018;4.284;2022-07-18T02:51:00;18.70;99.90
18998;DHT22;9632;51.018;4.284;2022-07-18T02:53:25;18.70;99.90
18998;DHT22;9632;51.018;4.284;2022-07-18T02:55:51;18.70;99.90
18998;DHT22;9632;51.018;4.284;2022-07-18T02:58:17;18.60;99.90
18998;DHT22;9632;51.018;4.284;2022-07-18T03:00:43;18.50;99.90
18998;DHT22;9632;51.018;4.284;2022-07-18T03:03:08;18.50;99.90
18998;DHT22;9632;51.018;4.284;2022-07-18T03:05:34;18.50;99.90
18998;DHT22;9632;51.018;4.284;2022-07-18T03:08:00;18.60;99.90
18998;DHT22;9632;51.018;4.284;2022-07-18T03:10:25;18.50;99.90
18998;DHT22;9632;51.018;4.284;2022-07-18T03:12:51;18.50;99.90
18998;DHT22;9632;51.018;4.284;2022-07-18T03:15:17;18.50;99.90
18998;DHT22;9632;51.018;4.284;2022-07-18T03:17:42;18.50;99.90
18998;DHT22;9632;51.018;4.284;2022-07-18T03:20:08;18.50;99.90
18998;DHT22;9632;51.018;4.284;2022-07-18T03:22:34;18.50;99.90
18998;DHT22;9632;51.018;4.284;2022-07-18T03:25:00;18.50;99.90
18998;DHT22;9632;51.018;4.284;2022-07-18T03:27:25;18.50;99.90
18998;DHT22;9632;51.018;4.284;2022-07-18T03:29:51;18.40;99.90
18998;DHT22;9632;51.018;4.284;2022-07-18T03:32:17;18.40;99.90
18998;DHT22;9632;51.018;4.284;2022-07-18T03:34:42;18.40;99.90
18998;DHT22;9632;51.018;4.284;2022-07-18T03:37:08;18.30;99.90
18998;DHT22;9632;51.018;4.284;2022-07-18T03:39:34;18.30;99.90
18998;DHT22;9632;51.018;4.284;2022-07-18T03:41:59;18.40;99.90
18998;DHT22;9632;51.018;4.284;2022-07-18T03:44:25;18.30;99.90
18998;DHT22;9632;51.018;4.284;2022-07-18T03:46:51;18.30;99.90
18998;DHT22;9632;51.018;4.284;2022-07-18T03:49:19;18.30;99.90
18998;DHT22;9632;51.018;4.284;2022-07-18T03:51:45;18.30;99.90
18998;DHT22;9632;51.018;4.284;2022-07-18T03:54:10;18.20;99.90
18998;DHT22;9632;51.018;4.284;2022-07-18T03:56:37;18.20;99.90
18998;DHT22;9632;51.018;4.284;2022-07-18T03:59:03;18.20;99.90
18998;DHT22;9632;51.018;4.284;2022-07-18T04:01:29;18.20;99.90
18998;DHT22;9632;51.018;4.284;2022-07-18T04:03:54;18.10;99.90
18998;DHT22;9632;51.018;4.284;2022-07-18T04:06:20;18.10;99.90
18998;DHT22;9632;51.018;4.284;2022-07-18T04:08:45;18.10;99.90
18998;DHT22;9632;51.018;4.284;2022-07-18T04:11:11;18.20;99.90
18998;DHT22;9632;51.018;4.284;2022-07-18T04:13:37;18.10;99.90
18998;DHT22;9632;51.018;4.284;2022-07-18T04:16:02;18.20;99.90
18998;DHT22;9632;51.018;4.284;2022-07-18T04:18:28;18.20;99.90
18998;DHT22;9632;51.018;4.284;2022-07-18T04:20:54;18.30;99.90
18998;DHT22;9632;51.018;4.284;2022-07-18T04:23:20;18.30;99.90
18998;DHT22;9632;51.018;4.284;2022-07-18T04:25:45;18.30;99.90
18998;DHT22;9632;51.018;4.284;2022-07-18T04:28:12;18.40;99.90
18998;DHT22;9632;51.018;4.284;2022-07-18T04:30:39;18.40;99.90
18998;DHT22;9632;51.018;4.284;2022-07-18T04:33:07;18.50;99.90
18998;DHT22;9632;51.018;4.284;2022-07-18T04:35:33;18.60;99.90
18998;DHT22;9632;51.018;4.284;2022-07-18T04:38:02;18.70;99.90
18998;DHT22;9632;51.018;4.284;2022-07-18T04:40:27;18.80;99.90
18998;DHT22;9632;51.018;4.284;2022-07-18T04:42:53;19.00;99.90
18998;DHT22;9632;51.018;4.284;2022-07-18T04:45:19;19.30;99.90
18998;DHT22;9632;51.018;4.284;2022-07-18T04:47:48;19.50;99.90
18998;DHT22;9632;51.018;4.284;2022-07-18T04:50:14;19.60;99.90
18998;DHT22;9632;51.018;4.284;2022-07-18T04:52:43;19.80;99.90
18998;DHT22;9632;51.018;4.284;2022-07-18T04:55:10;20.00;99.90
18998;DHT22;9632;51.018;4.284;2022-07-18T04:57:36;20.20;99.90
18998;DHT22;9632;51.018;4.284;2022-07-18T05:00:08;20.30;99.90
18998;DHT22;9632;51.018;4.284;2022-07-18T05:02:34;20.50;99.90
18998;DHT22;9632;51.018;4.284;2022-07-18T05:05:00;20.60;99.90
18998;DHT22;9632;51.018;4.284;2022-07-18T05:07:26;20.70;99.90
18998;DHT22;9632;51.018;4.284;2022-07-18T05:09:51;20.90;99.90
18998;DHT22;9632;51.018;4.284;2022-07-18T05:12:17;21.10;99.90
18998;DHT22;9632;51.018;4.284;2022-07-18T05:14:44;21.20;99.90
18998;DHT22;9632;51.018;4.284;2022-07-18T05:17:10;21.40;99.90
18998;DHT22;9632;51.018;4.284;2022-07-18T05:19:36;21.60;99.90
18998;DHT22;9632;51.018;4.284;2022-07-18T05:22:01;21.80;99.90
18998;DHT22;9632;51.018;4.284;2022-07-18T05:24:27;22.00;99.90
18998;DHT22;9632;51.018;4.284;2022-07-18T05:26:52;22.20;99.90
18998;DHT22;9632;51.018;4.284;2022-07-18T05:29:18;22.40;99.90
18998;DHT22;9632;51.018;4.284;2022-07-18T05:31:44;22.60;99.90
18998;DHT22;9632;51.018;4.284;2022-07-18T05:34:09;22.70;99.90
18998;DHT22;9632;51.018;4.284;2022-07-18T05:36:35;22.80;99.90
18998;DHT22;9632;51.018;4.284;2022-07-18T05:39:01;22.90;99.90
18998;DHT22;9632;51.018;4.284;2022-07-18T05:41:27;23.00;99.90
18998;DHT22;9632;51.018;4.284;2022-07-18T05:43:52;23.20;99.90
18998;DHT22;9632;51.018;4.284;2022-07-18T05:46:18;23.30;99.90
18998;DHT22;9632;51.018;4.284;2022-07-18T05:48:44;23.50;99.90
18998;DHT22;9632;51.018;4.284;2022-07-18T05:51:09;23.70;99.90
18998;DHT22;9632;51.018;4.284;2022-07-18T05:53:36;23.80;99.90
18998;DHT22;9632;51.018;4.284;2022-07-18T05:56:02;24.00;99.90
18998;DHT22;9632;51.018;4.284;2022-07-18T05:58:27;24.10;99.90
18998;DHT22;9632;51.018;4.284;2022-07-18T06:00:53;24.30;99.90
18998;DHT22;9632;51.018;4.284;2022-07-18T06:03:19;24.40;99.90
18998;DHT22;9632;51.018;4.284;2022-07-18T06:05:45;24.60;99.90
18998;DHT22;9632;51.018;4.284;2022-07-18T06:08:11;24.80;99.90
18998;DHT22;9632;51.018;4.284;2022-07-18T06:10:36;24.90;99.90
18998;DHT22;9632;51.018;4.284;2022-07-18T06:13:05;25.10;99.90
18998;DHT22;9632;51.018;4.284;2022-07-18T06:15:31;25.20;99.90
18998;DHT22;9632;51.018;4.284;2022-07-18T06:17:56;25.30;99.90
18998;DHT22;9632;51.018;4.284;2022-07-18T06:20:22;25.40;99.90
18998;DHT22;9632;51.018;4.284;2022-07-18T06:22:47;25.50;99.90
18998;DHT22;9632;51.018;4.284;2022-07-18T06:25:13;25.60;99.90
18998;DHT22;9632;51.018;4.284;2022-07-18T06:27:39;25.70;99.90
18998;DHT22;9632;51.018;4.284;2022-07-18T06:30:07;25.80;99.90
18998;DHT22;9632;51.018;4.284;2022-07-18T06:32:36;25.90;99.90
18998;DHT22;9632;51.018;4.284;2022-07-18T06:35:03;26.00;99.90
18998;DHT22;9632;51.018;4.284;2022-07-18T06:37:29;26.10;99.90
18998;DHT22;9632;51.018;4.284;2022-07-18T06:39:55;26.30;99.90
18998;DHT22;9632;51.018;4.284;2022-07-18T06:42:20;26.40;99.90
18998;DHT22;9632;51.018;4.284;2022-07-18T06:44:46;26.60;99.90
18998;DHT22;9632;51.018;4.284;2022-07-18T06:47:12;26.80;99.90
18998;DHT22;9632;51.018;4.284;2022-07-18T06:49:37;26.90;99.00
18998;DHT22;9632;51.018;4.284;2022-07-18T06:52:03;27.10;98.60
18998;DHT22;9632;51.018;4.284;2022-07-18T06:54:30;27.20;98.90
18998;DHT22;9632;51.018;4.284;2022-07-18T06:56:55;27.40;98.30
18998;DHT22;9632;51.018;4.284;2022-07-18T06:59:22;27.40;97.70
18998;DHT22;9632;51.018;4.284;2022-07-18T07:01:48;27.50;98.40
18998;DHT22;9632;51.018;4.284;2022-07-18T07:04:14;27.60;98.00
18998;DHT22;9632;51.018;4.284;2022-07-18T07:06:40;27.70;98.50
18998;DHT22;9632;51.018;4.284;2022-07-18T07:09:05;27.80;98.50
18998;DHT22;9632;51.018;4.284;2022-07-18T07:11:31;27.80;97.80
18998;DHT22;9632;51.018;4.284;2022-07-18T07:13:57;27.90;98.40
18998;DHT22;9632;51.018;4.284;2022-07-18T07:16:23;28.00;99.20
18998;DHT22;9632;51.018;4.284;2022-07-18T07:18:49;28.20;98.40
18998;DHT22;9632;51.018;4.284;2022-07-18T07:21:15;28.30;98.60
18998;DHT22;9632;51.018;4.284;2022-07-18T07:23:40;28.40;98.20
18998;DHT22;9632;51.018;4.284;2022-07-18T07:26:07;28.60;97.90
18998;DHT22;9632;51.018;4.284;2022-07-18T07:28:33;28.70;96.70
18998;DHT22;9632;51.018;4.284;2022-07-18T07:30:58;28.80;96.60
18998;DHT22;9632;51.018;4.284;2022-07-18T07:33:24;29.00;95.90
18998;DHT22;9632;51.018;4.284;2022-07-18T07:35:50;29.00;96.40
18998;DHT22;9632;51.018;4.284;2022-07-18T07:38:15;29.20;96.60
18998;DHT22;9632;51.018;4.284;2022-07-18T07:40:47;29.30;95.90
18998;DHT22;9632;51.018;4.284;2022-07-18T07:43:15;29.40;96.10
18998;DHT22;9632;51.018;4.284;2022-07-18T07:45:42;29.50;96.10
18998;DHT22;9632;51.018;4.284;2022-07-18T07:48:08;29.60;95.50
18998;DHT22;9632;51.018;4.284;2022-07-18T07:50:35;29.80;94.50
18998;DHT22;9632;51.018;4.284;2022-07-18T07:53:00;29.90;94.50
18998;DHT22;9632;51.018;4.284;2022-07-18T07:55:27;30.10;93.70
18998;DHT22;9632;51.018;4.284;2022-07-18T07:57:54;30.10;93.50
18998;DHT22;9632;51.018;4.284;2022-07-18T08:00:19;30.20;93.50
18998;DHT22;9632;51.018;4.284;2022-07-18T08:03:06;30.30;93.70
18998;DHT22;9632;51.018;4.284;2022-07-18T08:05:43;30.40;92.70
18998;DHT22;9632;51.018;4.284;2022-07-18T08:08:09;30.50;92.10
18998;DHT22;9632;51.018;4.284;2022-07-18T08:10:35;30.60;92.00
18998;DHT22;9632;51.018;4.284;2022-07-18T08:13:01;30.80;90.80
18998;DHT22;9632;51.018;4.284;2022-07-18T08:15:27;30.70;91.10
18998;DHT22;9632;51.018;4.284;2022-07-18T08:17:53;30.70;91.10
18998;DHT22;9632;51.018;4.284;2022-07-18T08:20:19;30.70;92.10
18998;DHT22;9632;51.018;4.284;2022-07-18T08:22:56;30.80;92.70
18998;DHT22;9632;51.018;4.284;2022-07-18T08:25:22;30.90;91.00
18998;DHT22;9632;51.018;4.284;2022-07-18T08:27:48;31.00;90.80
18998;DHT22;9632;51.018;4.284;2022-07-18T08:30:15;31.10;90.80
18998;DHT22;9632;51.018;4.284;2022-07-18T08:32:40;30.90;90.40
18998;DHT22;9632;51.018;4.284;2022-07-18T08:35:06;30.90;91.00
18998;DHT22;9632;51.018;4.284;2022-07-18T08:37:32;31.10;91.70
18998;DHT22;9632;51.018;4.284;2022-07-18T08:39:58;31.20;90.90
18998;DHT22;9632;51.018;4.284;2022-07-18T08:42:25;31.30;90.40
18998;DHT22;9632;51.018;4.284;2022-07-18T08:44:56;31.40;89.80
18998;DHT22;9632;51.018;4.284;2022-07-18T08:47:22;31.40;90.30
18998;DHT22;9632;51.018;4.284;2022-07-18T08:49:49;31.50;90.00
18998;DHT22;9632;51.018;4.284;2022-07-18T08:52:15;31.60;90.20
18998;DHT22;9632;51.018;4.284;2022-07-18T08:54:41;31.70;89.70
18998;DHT22;9632;51.018;4.284;2022-07-18T08:57:07;31.80;88.80
18998;DHT22;9632;51.018;4.284;2022-07-18T08:59:33;31.90;86.80
18998;DHT22;9632;51.018;4.284;2022-07-18T09:01:58;32.10;89.60
18998;DHT22;9632;51.018;4.284;2022-07-18T09:04:41;32.20;87.10
18998;DHT22;9632;51.018;4.284;2022-07-18T09:07:08;32.30;85.30
18998;DHT22;9632;51.018;4.284;2022-07-18T09:09:35;32.40;83.90
18998;DHT22;9632;51.018;4.284;2022-07-18T09:12:08;32.40;86.80
18998;DHT22;9632;51.018;4.284;2022-07-18T09:14:35;32.50;84.50
18998;DHT22;9632;51.018;4.284;2022-07-18T09:19:35;32.60;82.40
18998;DHT22;9632;51.018;4.284;2022-07-18T09:22:20;32.60;81.80
18998;DHT22;9632;51.018;4.284;2022-07-18T09:27:34;32.60;82.00
18998;DHT22;9632;51.018;4.284;2022-07-18T09:30:33;32.70;81.50
18998;DHT22;9632;51.018;4.284;2022-07-18T09:35:31;32.90;80.20
18998;DHT22;9632;51.018;4.284;2022-07-18T09:38:07;33.10;76.50
18998;DHT22;9632;51.018;4.284;2022-07-18T09:40:38;33.10;76.80
18998;DHT22;9632;51.018;4.284;2022-07-18T09:43:16;33.20;78.70
18998;DHT22;9632;51.018;4.284;2022-07-18T09:45:53;33.20;81.40
18998;DHT22;9632;51.018;4.284;2022-07-18T09:48:23;33.30;79.80
18998;DHT22;9632;51.018;4.284;2022-07-18T09:50:53;33.40;76.40
18998;DHT22;9632;51.018;4.284;2022-07-18T09:53:25;33.40;77.00
18998;DHT22;9632;51.018;4.284;2022-07-18T09:55:53;33.60;77.00
18998;DHT22;9632;51.018;4.284;2022-07-18T09:58:27;33.40;74.20
18998;DHT22;9632;51.018;4.284;2022-07-18T10:00:54;33.50;74.40
18998;DHT22;9632;51.018;4.284;2022-07-18T10:03:22;33.40;75.70
18998;DHT22;9632;51.018;4.284;2022-07-18T10:05:50;33.40;73.90
18998;DHT22;9632;51.018;4.284;2022-07-18T10:08:18;33.50;75.10
18998;DHT22;9632;51.018;4.284;2022-07-18T10:10:46;33.60;73.50
18998;DHT22;9632;51.018;4.284;2022-07-18T10:13:13;33.60;71.60
18998;DHT22;9632;51.018;4.284;2022-07-18T10:15:40;33.70;71.90
18998;DHT22;9632;51.018;4.284;2022-07-18T10:18:11;33.70;71.40
18998;DHT22;9632;51.018;4.284;2022-07-18T10:20:40;33.60;71.60
18998;DHT22;9632;51.018;4.284;2022-07-18T10:25:42;33.80;72.60
18998;DHT22;9632;51.018;4.284;2022-07-18T10:28:12;33.80;72.60
18998;DHT22;9632;51.018;4.284;2022-07-18T10:30:44;33.90;72.80
18998;DHT22;9632;51.018;4.284;2022-07-18T10:36:08;34.00;71.40
18998;DHT22;9632;51.018;4.284;2022-07-18T10:38:35;34.10;70.30
18998;DHT22;9632;51.018;4.284;2022-07-18T10:41:09;34.10;69.40
18998;DHT22;9632;51.018;4.284;2022-07-18T10:43:37;34.20;70.00
18998;DHT22;9632;51.018;4.284;2022-07-18T10:46:05;34.20;70.60
18998;DHT22;9632;51.018;4.284;2022-07-18T10:51:11;34.40;72.90
18998;DHT22;9632;51.018;4.284;2022-07-18T10:53:57;34.40;69.20
18998;DHT22;9632;51.018;4.284;2022-07-18T10:59:22;34.40;68.10
18998;DHT22;9632;51.018;4.284;2022-07-18T11:01:52;34.40;70.70
18998;DHT22;9632;51.018;4.284;2022-07-18T11:04:31;34.50;70.90
18998;DHT22;9632;51.018;4.284;2022-07-18T11:07:08;34.50;67.90
18998;DHT22;9632;51.018;4.284;2022-07-18T11:09:47;34.50;65.80
18998;DHT22;9632;51.018;4.284;2022-07-18T11:12:31;34.50;66.20
18998;DHT22;9632;51.018;4.284;2022-07-18T11:20:36;34.70;64.80
18998;DHT22;9632;51.018;4.284;2022-07-18T11:25:39;34.90;66.20
18998;DHT22;9632;51.018;4.284;2022-07-18T11:28:12;34.90;62.50
18998;DHT22;9632;51.018;4.284;2022-07-18T11:30:38;34.90;64.70
18998;DHT22;9632;51.018;4.284;2022-07-18T11:33:05;35.00;65.40
18998;DHT22;9632;51.018;4.284;2022-07-18T11:35:31;35.00;65.70
18998;DHT22;9632;51.018;4.284;2022-07-18T11:38:04;35.00;65.30
18998;DHT22;9632;51.018;4.284;2022-07-18T11:40:30;35.20;64.30
18998;DHT22;9632;51.018;4.284;2022-07-18T11:42:57;35.20;63.30
18998;DHT22;9632;51.018;4.284;2022-07-18T11:45:22;35.10;63.10
18998;DHT22;9632;51.018;4.284;2022-07-18T11:47:52;35.20;65.30
18998;DHT22;9632;51.018;4.284;2022-07-18T11:50:26;35.00;63.30
18998;DHT22;9632;51.018;4.284;2022-07-18T11:52:59;35.10;61.30
18998;DHT22;9632;51.018;4.284;2022-07-18T11:55:37;35.10;63.20
18998;DHT22;9632;51.018;4.284;2022-07-18T11:58:11;35.00;62.60
18998;DHT22;9632;51.018;4.284;2022-07-18T12:00:37;35.00;62.50
18998;DHT22;9632;51.018;4.284;2022-07-18T12:05:42;35.20;62.20
18998;DHT22;9632;51.018;4.284;2022-07-18T12:19:12;35.20;59.50
18998;DHT22;9632;51.018;4.284;2022-07-18T12:21:40;35.20;60.50
18998;DHT22;9632;51.018;4.284;2022-07-18T12:24:30;35.20;60.60
18998;DHT22;9632;51.018;4.284;2022-07-18T12:35:29;35.30;61.70
18998;DHT22;9632;51.018;4.284;2022-07-18T12:38:14;35.30;60.60
18998;DHT22;9632;51.018;4.284;2022-07-18T12:40:44;35.30;60.30
18998;DHT22;9632;51.018;4.284;2022-07-18T12:43:16;35.40;58.20
18998;DHT22;9632;51.018;4.284;2022-07-18T12:45:43;35.40;59.20
18998;DHT22;9632;51.018;4.284;2022-07-18T12:48:11;35.40;58.60
18998;DHT22;9632;51.018;4.284;2022-07-18T12:50:38;35.30;57.70
18998;DHT22;9632;51.018;4.284;2022-07-18T12:53:05;35.30;57.60
18998;DHT22;9632;51.018;4.284;2022-07-18T12:55:31;35.30;58.40
18998;DHT22;9632;51.018;4.284;2022-07-18T12:57:57;35.30;59.00
18998;DHT22;9632;51.018;4.284;2022-07-18T13:00:23;35.40;59.30
18998;DHT22;9632;51.018;4.284;2022-07-18T13:02:48;35.40;57.90
18998;DHT22;9632;51.018;4.284;2022-07-18T13:05:14;35.30;57.70
18998;DHT22;9632;51.018;4.284;2022-07-18T13:07:40;35.40;57.30
18998;DHT22;9632;51.018;4.284;2022-07-18T13:10:06;35.40;56.70
18998;DHT22;9632;51.018;4.284;2022-07-18T13:12:32;35.40;57.80
18998;DHT22;9632;51.018;4.284;2022-07-18T13:14:58;35.40;55.90
18998;DHT22;9632;51.018;4.284;2022-07-18T13:17:23;35.40;55.80
18998;DHT22;9632;51.018;4.284;2022-07-18T13:19:49;35.40;56.40
18998;DHT22;9632;51.018;4.284;2022-07-18T13:22:16;35.40;58.00
18998;DHT22;9632;51.018;4.284;2022-07-18T13:24:42;35.50;55.90
18998;DHT22;9632;51.018;4.284;2022-07-18T13:27:08;35.50;55.40
18998;DHT22;9632;51.018;4.284;2022-07-18T13:29:33;35.40;56.70
18998;DHT22;9632;51.018;4.284;2022-07-18T13:31:59;35.40;55.60
18998;DHT22;9632;51.018;4.284;2022-07-18T13:34:25;35.40;52.20
18998;DHT22;9632;51.018;4.284;2022-07-18T13:36:52;35.30;53.40
18998;DHT22;9632;51.018;4.284;2022-07-18T13:39:19;35.40;53.50
18998;DHT22;9632;51.018;4.284;2022-07-18T13:41:45;35.30;53.50
18998;DHT22;9632;51.018;4.284;2022-07-18T13:44:11;35.40;55.60
18998;DHT22;9632;51.018;4.284;2022-07-18T13:46:37;35.40;54.50
18998;DHT22;9632;51.018;4.284;2022-07-18T13:49:06;35.40;54.10
18998;DHT22;9632;51.018;4.284;2022-07-18T13:51:31;35.40;54.60
18998;DHT22;9632;51.018;4.284;2022-07-18T13:53:57;35.40;53.60
18998;DHT22;9632;51.018;4.284;2022-07-18T13:56:23;35.40;54.90
18998;DHT22;9632;51.018;4.284;2022-07-18T13:58:48;35.40;54.60
18998;DHT22;9632;51.018;4.284;2022-07-18T14:01:14;35.40;53.80
18998;DHT22;9632;51.018;4.284;2022-07-18T14:03:39;35.40;53.00
18998;DHT22;9632;51.018;4.284;2022-07-18T14:06:05;35.40;53.80
18998;DHT22;9632;51.018;4.284;2022-07-18T14:08:31;35.40;51.80
18998;DHT22;9632;51.018;4.284;2022-07-18T14:10:56;35.40;53.00
18998;DHT22;9632;51.018;4.284;2022-07-18T14:13:22;35.40;53.70
18998;DHT22;9632;51.018;4.284;2022-07-18T14:15:48;35.40;54.20
18998;DHT22;9632;51.018;4.284;2022-07-18T14:18:13;35.40;54.60
18998;DHT22;9632;51.018;4.284;2022-07-18T14:20:39;35.40;53.00
18998;DHT22;9632;51.018;4.284;2022-07-18T14:23:06;35.30;53.80
18998;DHT22;9632;51.018;4.284;2022-07-18T14:25:32;35.40;54.00
18998;DHT22;9632;51.018;4.284;2022-07-18T14:27:58;35.40;55.00
18998;DHT22;9632;51.018;4.284;2022-07-18T14:30:23;35.30;51.80
18998;DHT22;9632;51.018;4.284;2022-07-18T14:32:50;35.20;49.30
18998;DHT22;9632;51.018;4.284;2022-07-18T14:35:16;35.20;51.30
18998;DHT22;9632;51.018;4.284;2022-07-18T14:37:42;35.20;50.60
18998;DHT22;9632;51.018;4.284;2022-07-18T14:40:08;35.10;50.20
18998;DHT22;9632;51.018;4.284;2022-07-18T14:42:34;35.10;51.10
18998;DHT22;9632;51.018;4.284;2022-07-18T14:44:59;35.10;49.90
18998;DHT22;9632;51.018;4.284;2022-07-18T14:47:25;35.10;52.10
18998;DHT22;9632;51.018;4.284;2022-07-18T14:49:51;35.10;52.10
18998;DHT22;9632;51.018;4.284;2022-07-18T14:52:17;35.20;52.90
18998;DHT22;9632;51.018;4.284;2022-07-18T14:54:43;35.20;54.50
18998;DHT22;9632;51.018;4.284;2022-07-18T14:57:08;35.20;53.00
18998;DHT22;9632;51.018;4.284;2022-07-18T14:59:35;35.20;53.10
18998;DHT22;9632;51.018;4.284;2022-07-18T15:02:00;35.30;51.70
18998;DHT22;9632;51.018;4.284;2022-07-18T15:04:32;35.20;53.10
18998;DHT22;9632;51.018;4.284;2022-07-18T15:06:58;35.30;52.60
18998;DHT22;9632;51.018;4.284;2022-07-18T15:09:23;35.20;51.90
18998;DHT22;9632;51.018;4.284;2022-07-18T15:11:49;35.30;52.40
18998;DHT22;9632;51.018;4.284;2022-07-18T15:14:15;35.20;49.20
18998;DHT22;9632;51.018;4.284;2022-07-18T15:16:40;35.20;51.30
18998;DHT22;9632;51.018;4.284;2022-07-18T15:19:06;35.20;50.90
18998;DHT22;9632;51.018;4.284;2022-07-18T15:21:32;35.20;51.00
18998;DHT22;9632;51.018;4.284;2022-07-18T15:23:58;35.10;51.80
18998;DHT22;9632;51.018;4.284;2022-07-18T15:26:24;35.10;52.80
18998;DHT22;9632;51.018;4.284;2022-07-18T15:28:50;35.10;50.70
18998;DHT22;9632;51.018;4.284;2022-07-18T15:31:15;35.00;49.00
18998;DHT22;9632;51.018;4.284;2022-07-18T15:33:41;34.90;49.30
18998;DHT22;9632;51.018;4.284;2022-07-18T15:36:07;34.90;51.90
18998;DHT22;9632;51.018;4.284;2022-07-18T15:38:32;34.90;53.60
18998;DHT22;9632;51.018;4.284;2022-07-18T15:40:58;34.90;52.70
18998;DHT22;9632;51.018;4.284;2022-07-18T15:43:24;34.90;52.00
18998;DHT22;9632;51.018;4.284;2022-07-18T15:45:49;34.90;51.50
18998;DHT22;9632;51.018;4.284;2022-07-18T15:48:15;34.90;50.20
18998;DHT22;9632;51.018;4.284;2022-07-18T15:50:40;34.90;49.40
18998;DHT22;9632;51.018;4.284;2022-07-18T15:53:06;34.90;49.90
18998;DHT22;9632;51.018;4.284;2022-07-18T15:55:32;34.90;50.20
18998;DHT22;9632;51.018;4.284;2022-07-18T15:57:58;34.90;53.90
18998;DHT22;9632;51.018;4.284;2022-07-18T16:00:25;34.80;53.90
18998;DHT22;9632;51.018;4.284;2022-07-18T16:02:50;34.80;53.90
18998;DHT22;9632;51.018;4.284;2022-07-18T16:05:16;34.80;54.90
18998;DHT22;9632;51.018;4.284;2022-07-18T16:07:42;34.80;55.30
18998;DHT22;9632;51.018;4.284;2022-07-18T16:10:08;34.80;52.60
18998;DHT22;9632;51.018;4.284;2022-07-18T16:12:34;34.70;52.20
18998;DHT22;9632;51.018;4.284;2022-07-18T16:14:59;34.70;52.90
18998;DHT22;9632;51.018;4.284;2022-07-18T16:17:25;34.70;53.20
18998;DHT22;9632;51.018;4.284;2022-07-18T16:19:50;34.70;53.40
18998;DHT22;9632;51.018;4.284;2022-07-18T16:22:16;34.60;51.50
18998;DHT22;9632;51.018;4.284;2022-07-18T16:24:42;34.60;51.60
18998;DHT22;9632;51.018;4.284;2022-07-18T16:27:09;34.60;54.30
18998;DHT22;9632;51.018;4.284;2022-07-18T16:29:36;34.60;54.30
18998;DHT22;9632;51.018;4.284;2022-07-18T16:32:01;34.60;54.10
18998;DHT22;9632;51.018;4.284;2022-07-18T16:34:27;34.50;53.20